Time;durP1;ratioP1;P1;durP2;ratioP2;P2;SDS_P1;SDS_P2;PMS_P1;PMS_P2;Temp;Humidity;BMP_temperature;BMP_pressure;BME280_temperature;BME280_humidity;BME280_pressure;Samples;Min_cycle;Max_cycle;Signal;HPM_P1;HPM_P2
2022/06/25 00:02:25;;;;;;;3.50;3.00;;;17.20;99.90;;;;;;5040560;28;20479;-55
2022/06/25 00:07:36;;;;;;;8.50;4.37;;;17.20;99.90;;;;;;5029585;28;20558;-55
2022/06/25 00:10:03;;;;;;;4.83;4.37;;;17.10;99.90;;;;;;5050004;28;20478;-55
2022/06/25 00:12:31;;;;;;;3.77;3.10;;;17.10;99.90;;;;;;5054361;28;20894;-55
2022/06/25 00:14:59;;;;;;;4.17;3.83;;;17.20;99.90;;;;;;5047383;28;21058;-54
2022/06/25 00:17:28;;;;;;;3.80;3.03;;;17.20;99.90;;;;;;5045566;28;20482;-55
2022/06/25 00:19:54;;;;;;;16.73;4.30;;;17.20;99.90;;;;;;5056883;28;20493;-54
2022/06/25 00:22:21;;;;;;;6.00;2.73;;;17.30;99.90;;;;;;5043226;28;20473;-54
2022/06/25 00:24:48;;;;;;;3.77;3.47;;;17.40;99.90;;;;;;5058903;28;20518;-54
2022/06/25 00:27:14;;;;;;;5.10;3.53;;;17.40;99.90;;;;;;5060045;28;20986;-54
2022/06/25 00:29:41;;;;;;;3.47;3.17;;;17.40;99.90;;;;;;5046720;28;20482;-54
2022/06/25 00:32:10;;;;;;;5.23;3.30;;;17.50;99.90;;;;;;5044570;28;20894;-54
2022/06/25 00:34:38;;;;;;;7.93;3.50;;;17.60;99.90;;;;;;5057992;28;20568;-54
2022/06/25 00:37:05;;;;;;;4.77;3.67;;;17.60;99.90;;;;;;5039320;28;20522;-54
2022/06/25 00:39:32;;;;;;;6.57;2.77;;;17.70;99.90;;;;;;5027570;28;20482;-54
2022/06/25 00:41:59;;;;;;;9.10;3.23;;;17.60;99.90;;;;;;5053306;28;20477;-53
2022/06/25 00:44:28;;;;;;;6.53;3.93;;;17.60;99.90;;;;;;5039737;28;20487;-54
2022/06/25 00:46:54;;;;;;;5.07;3.50;;;17.60;99.90;;;;;;5054261;28;20465;-53
2022/06/25 00:49:21;;;;;;;5.70;3.43;;;17.60;99.90;;;;;;5061916;28;20997;-53
2022/06/25 00:51:52;;;;;;;5.10;3.70;;;17.40;99.90;;;;;;5059166;28;20497;-53
2022/06/25 00:54:21;;;;;;;4.50;2.97;;;17.40;99.90;;;;;;5060031;28;20488;-55
2022/06/25 00:56:50;;;;;;;3.60;3.30;;;17.40;99.90;;;;;;5031938;28;20854;-54
2022/06/25 00:59:20;;;;;;;3.33;2.97;;;17.30;99.90;;;;;;5060905;28;20478;-55
2022/06/25 01:01:46;;;;;;;7.03;2.80;;;17.30;99.90;;;;;;5063049;28;20565;-55
2022/06/25 01:04:13;;;;;;;4.93;3.40;;;17.20;99.90;;;;;;5051673;28;21010;-56
2022/06/25 01:06:40;;;;;;;9.47;3.90;;;17.10;99.90;;;;;;5039768;28;20987;-55
2022/06/25 01:09:08;;;;;;;8.03;3.87;;;17.10;99.90;;;;;;5061700;28;20849;-56
2022/06/25 01:11:35;;;;;;;5.57;3.20;;;17.10;99.90;;;;;;5062634;28;20522;-55
2022/06/25 01:14:07;;;;;;;6.67;4.10;;;17.10;99.90;;;;;;5059805;28;22615;-55
2022/06/25 01:16:34;;;;;;;3.63;3.33;;;17.10;99.90;;;;;;5057139;28;20482;-56
2022/06/25 01:19:07;;;;;;;6.73;3.87;;;17.10;99.90;;;;;;5062951;28;20482;-54
2022/06/25 01:21:35;;;;;;;4.17;3.33;;;17.10;99.90;;;;;;5062333;28;20470;-56
2022/06/25 01:24:05;;;;;;;4.47;2.73;;;17.10;99.90;;;;;;5059517;28;20482;-55
2022/06/25 01:26:33;;;;;;;5.23;3.40;;;17.10;99.90;;;;;;5058380;28;20487;-54
2022/06/25 01:29:00;;;;;;;4.83;2.80;;;17.10;99.90;;;;;;5062209;28;20478;-55
2022/06/25 01:31:27;;;;;;;4.10;3.20;;;17.20;99.90;;;;;;5055664;28;20900;-55
2022/06/25 01:33:54;;;;;;;3.73;3.43;;;17.20;99.90;;;;;;5048948;28;20829;-55
2022/06/25 01:36:21;;;;;;;3.90;3.10;;;17.30;99.90;;;;;;5062640;28;20592;-55
2022/06/25 01:38:48;;;;;;;4.30;3.20;;;17.40;99.90;;;;;;5063528;28;20878;-55
2022/06/25 01:41:16;;;;;;;5.57;3.10;;;17.40;99.90;;;;;;5065523;28;20903;-55
2022/06/25 01:43:43;;;;;;;3.60;3.30;;;;;;;;;;5061373;28;20474;-56
2022/06/25 01:46:10;;;;;;;10.07;3.87;;;17.50;99.90;;;;;;5060093;28;20502;-56
2022/06/25 01:48:37;;;;;;;3.00;2.73;;;17.50;99.90;;;;;;5044929;28;20478;-56
2022/06/25 01:51:04;;;;;;;7.70;3.20;;;17.40;99.90;;;;;;5057216;28;20473;-56
2022/06/25 01:53:31;;;;;;;7.73;3.33;;;17.40;99.90;;;;;;5064316;28;22942;-55
2022/06/25 01:55:58;;;;;;;3.37;2.87;;;17.40;99.90;;;;;;5057242;28;20475;-55
2022/06/25 01:58:26;;;;;;;3.40;2.73;;;17.40;99.90;;;;;;5054339;28;20466;-55
2022/06/25 02:00:53;;;;;;;4.00;2.80;;;17.40;99.90;;;;;;5053144;28;20508;-56
2022/06/25 02:03:19;;;;;;;2.77;2.57;;;17.40;99.90;;;;;;5060278;28;20485;-55
2022/06/25 02:05:58;;;;;;;6.13;3.67;;;17.40;99.90;;;;;;5028424;28;20478;-56
2022/06/25 02:08:26;;;;;;;6.13;3.00;;;17.40;99.90;;;;;;5053055;28;20593;-55
2022/06/25 02:10:54;;;;;;;3.97;3.00;;;17.40;99.90;;;;;;5059369;28;20480;-56
2022/06/25 02:13:20;;;;;;;3.00;2.53;;;17.40;99.90;;;;;;5065389;28;20474;-54
2022/06/25 02:15:49;;;;;;;9.03;3.10;;;17.40;99.90;;;;;;5051938;28;20485;-55
2022/06/25 02:18:16;;;;;;;6.77;3.30;;;17.40;99.90;;;;;;5062078;28;21108;-55
2022/06/25 02:20:43;;;;;;;5.50;2.73;;;17.40;99.90;;;;;;5054742;28;20968;-55
2022/06/25 02:23:11;;;;;;;3.03;2.73;;;17.40;99.90;;;;;;5061470;28;20520;-55
2022/06/25 02:25:38;;;;;;;4.23;2.47;;;17.40;99.90;;;;;;5059031;28;20474;-56
2022/06/25 02:28:05;;;;;;;10.10;2.93;;;17.40;99.90;;;;;;5051620;28;20483;-55
2022/06/25 02:30:32;;;;;;;2.53;2.10;;;17.40;99.90;;;;;;5056045;28;20486;-55
2022/06/25 02:33:00;;;;;;;3.00;2.70;;;17.40;99.90;;;;;;5055961;28;20481;-55
2022/06/25 02:35:26;;;;;;;8.83;2.60;;;17.30;99.90;;;;;;5041539;28;20494;-55
2022/06/25 02:37:53;;;;;;;2.93;2.20;;;17.30;99.90;;;;;;5034206;28;20490;-55
2022/06/25 02:40:20;;;;;;;7.03;2.43;;;17.30;99.90;;;;;;5055671;28;20491;-55
2022/06/25 02:42:47;;;;;;;10.40;2.93;;;17.30;99.90;;;;;;5066362;28;20490;-55
2022/06/25 02:45:14;;;;;;;3.33;2.53;;;17.30;99.90;;;;;;5053299;28;20471;-55
2022/06/25 02:47:41;;;;;;;4.93;2.83;;;17.20;99.90;;;;;;5053223;28;20480;-55
2022/06/25 02:50:11;;;;;;;5.00;2.97;;;17.20;99.90;;;;;;5058017;28;21035;-54
2022/06/25 02:52:38;;;;;;;5.13;3.20;;;17.20;99.90;;;;;;5059308;28;20979;-54
2022/06/25 02:55:05;;;;;;;3.60;2.70;;;17.20;99.90;;;;;;5056487;28;20486;-54
2022/06/25 03:00:16;;;;;;;3.77;2.57;;;17.20;99.90;;;;;;5046819;28;20486;-56
2022/06/25 03:02:43;;;;;;;5.27;2.27;;;17.20;99.90;;;;;;5054913;28;20485;-56
2022/06/25 03:05:11;;;;;;;8.10;2.70;;;17.10;99.90;;;;;;5056954;28;20475;-55
2022/06/25 03:07:38;;;;;;;2.30;2.10;;;17.00;99.90;;;;;;5053999;28;20489;-56
2022/06/25 03:10:05;;;;;;;4.00;2.70;;;17.00;99.90;;;;;;5041899;28;20593;-56
2022/06/25 03:12:32;;;;;;;3.77;2.03;;;16.90;99.90;;;;;;5033580;28;20479;-56
2022/06/25 03:14:59;;;;;;;2.73;2.53;;;16.80;99.90;;;;;;5059797;28;20566;-56
2022/06/25 03:17:25;;;;;;;6.23;2.53;;;16.60;99.90;;;;;;5025686;28;20486;-56
2022/06/25 03:19:52;;;;;;;2.57;2.37;;;16.60;99.90;;;;;;5054712;28;21047;-55
2022/06/25 03:22:21;;;;;;;5.80;3.53;;;16.60;99.90;;;;;;5053612;28;20471;-56
2022/06/25 03:24:48;;;;;;;7.30;2.77;;;16.60;99.90;;;;;;5052214;28;20470;-56
2022/06/25 03:27:15;;;;;;;4.47;2.80;;;16.60;99.90;;;;;;5039993;28;20468;-56
2022/06/25 03:29:41;;;;;;;6.83;3.00;;;16.60;99.90;;;;;;5053474;28;20483;-55
2022/06/25 03:32:09;;;;;;;5.60;3.33;;;16.50;99.90;;;;;;5055654;28;21083;-55
2022/06/25 03:34:35;;;;;;;7.00;2.70;;;16.50;99.90;;;;;;5055109;28;20487;-55
2022/06/25 03:37:02;;;;;;;4.27;2.50;;;16.50;99.90;;;;;;5046001;28;20486;-55
2022/06/25 03:39:30;;;;;;;2.90;1.90;;;16.50;99.90;;;;;;5057135;28;20482;-55
2022/06/25 03:41:57;;;;;;;6.97;3.30;;;16.60;99.90;;;;;;5050283;28;21205;-55
2022/06/25 03:44:23;;;;;;;5.70;2.87;;;16.70;99.90;;;;;;5062871;28;20970;-56
2022/06/25 03:46:50;;;;;;;3.00;2.70;;;16.70;99.90;;;;;;5047840;28;20480;-56
2022/06/25 03:49:17;;;;;;;4.77;2.67;;;16.60;99.90;;;;;;5052423;28;20474;-56
2022/06/25 03:51:43;;;;;;;9.50;4.27;;;16.60;99.90;;;;;;5052189;28;20479;-56
2022/06/25 03:54:10;;;;;;;3.60;2.43;;;16.60;99.90;;;;;;5057161;28;20482;-56
2022/06/25 03:56:38;;;;;;;3.17;2.90;;;16.60;99.90;;;;;;5048716;28;21023;-56
2022/06/25 03:59:05;;;;;;;4.00;2.83;;;16.60;99.90;;;;;;5053995;28;21168;-56
2022/06/25 04:01:31;;;;;;;5.20;2.77;;;16.60;99.90;;;;;;5042219;28;21133;-56
2022/06/25 04:03:59;;;;;;;2.97;2.60;;;16.60;99.90;;;;;;5037147;28;20486;-56
2022/06/25 04:06:26;;;;;;;2.53;2.33;;;16.60;99.90;;;;;;5047419;28;20988;-56
2022/06/25 04:08:53;;;;;;;7.53;2.83;;;16.70;99.90;;;;;;5056992;28;20482;-56
2022/06/25 04:11:19;;;;;;;4.93;3.00;;;16.80;99.90;;;;;;5058155;28;21527;-56
2022/06/25 04:13:47;;;;;;;7.97;4.10;;;16.80;99.90;;;;;;5048066;28;20669;-56
2022/06/25 04:16:14;;;;;;;7.77;3.00;;;16.80;99.90;;;;;;5055660;28;20485;-56
2022/06/25 04:18:40;;;;;;;11.00;2.43;;;16.80;99.90;;;;;;5041534;28;20508;-56
2022/06/25 04:21:07;;;;;;;4.53;2.97;;;16.70;99.90;;;;;;5046365;28;20492;-56
2022/06/25 04:23:34;;;;;;;3.80;2.47;;;16.80;99.90;;;;;;5058943;28;20471;-55
2022/06/25 04:26:01;;;;;;;5.27;3.53;;;16.80;99.90;;;;;;5047833;28;20491;-55
2022/06/25 04:31:14;;;;;;;5.30;2.80;;;17.00;99.90;;;;;;5057186;28;20482;-55
2022/06/25 04:33:41;;;;;;;5.70;3.37;;;17.00;99.90;;;;;;5054039;28;20967;-55
2022/06/25 04:36:08;;;;;;;8.73;3.00;;;17.00;99.90;;;;;;5050524;28;20681;-56
2022/06/25 04:38:34;;;;;;;3.70;3.00;;;17.10;99.90;;;;;;5056187;28;20479;-56
2022/06/25 04:41:01;;;;;;;7.30;3.50;;;17.20;99.90;;;;;;5056260;28;20478;-55
2022/06/25 04:43:28;;;;;;;5.30;2.90;;;17.30;99.90;;;;;;5049524;28;20597;-57
2022/06/25 04:45:55;;;;;;;4.10;2.93;;;17.30;99.90;;;;;;5049830;28;20504;-56
2022/06/25 04:48:23;;;;;;;3.77;2.43;;;17.30;99.90;;;;;;5055008;28;20576;-55
2022/06/25 04:50:49;;;;;;;3.30;2.83;;;17.40;99.90;;;;;;5055923;28;20479;-56
2022/06/25 04:53:16;;;;;;;4.63;3.00;;;17.50;99.90;;;;;;5057730;28;20486;-56
2022/06/25 04:55:43;;;;;;;4.50;2.63;;;17.70;99.90;;;;;;5053565;28;21187;-55
2022/06/25 04:58:10;;;;;;;3.77;2.80;;;17.80;99.90;;;;;;5054142;28;20511;-55
2022/06/25 05:00:36;;;;;;;3.50;2.40;;;17.90;99.90;;;;;;5055395;28;20837;-57
2022/06/25 05:03:03;;;;;;;3.30;3.00;;;17.90;99.90;;;;;;5045393;28;20475;-56
2022/06/25 05:05:31;;;;;;;6.03;2.60;;;18.20;99.90;;;;;;5052449;28;20475;-57
2022/06/25 05:07:58;;;;;;;6.67;2.63;;;18.50;99.90;;;;;;5056363;28;20821;-56
2022/06/25 05:10:25;;;;;;;2.63;2.23;;;18.50;99.90;;;;;;5059036;28;21988;-56
2022/06/25 05:15:37;;;;;;;4.77;2.67;;;18.80;99.90;;;;;;5057898;28;20973;-56
2022/06/25 05:18:03;;;;;;;6.23;2.47;;;18.90;99.90;;;;;;5056933;28;20476;-57
2022/06/25 05:20:31;;;;;;;3.23;2.30;;;18.90;99.90;;;;;;5062394;28;20490;-57
2022/06/25 05:22:58;;;;;;;2.70;2.43;;;19.00;99.90;;;;;;5061274;28;20478;-56
2022/06/25 05:25:25;;;;;;;6.10;2.43;;;19.00;99.90;;;;;;5060864;28;20479;-57
2022/06/25 05:27:51;;;;;;;5.60;2.30;;;19.00;99.90;;;;;;5048667;28;20505;-53
2022/06/25 05:30:18;;;;;;;7.50;2.60;;;19.00;99.90;;;;;;5059687;28;20480;-56
2022/06/25 05:32:45;;;;;;;4.10;3.20;;;19.00;99.90;;;;;;5061168;28;20479;-57
2022/06/25 05:35:11;;;;;;;3.00;2.20;;;19.20;99.90;;;;;;5063831;28;20489;-57
2022/06/25 05:37:40;;;;;;;3.77;2.07;;;19.20;99.90;;;;;;5056324;28;20898;-58
2022/06/25 05:40:09;;;;;;;4.00;1.90;;;19.20;99.90;;;;;;5049226;28;21078;-56
2022/06/25 05:42:36;;;;;;;4.90;2.33;;;19.30;99.90;;;;;;5060956;28;21035;-58
2022/06/25 05:45:04;;;;;;;3.23;2.03;;;19.30;99.90;;;;;;5031635;28;21034;-57
2022/06/25 05:47:31;;;;;;;5.53;2.53;;;19.40;99.90;;;;;;5049199;28;20471;-57
2022/06/25 05:49:57;;;;;;;7.00;2.83;;;19.50;99.90;;;;;;5053045;28;20494;-56
2022/06/25 05:52:24;;;;;;;2.67;2.10;;;19.60;99.90;;;;;;5055246;28;20493;-56
2022/06/25 05:54:52;;;;;;;2.97;2.10;;;19.50;99.90;;;;;;5053212;28;20486;-56
2022/06/25 05:57:19;;;;;;;2.73;2.00;;;19.80;99.90;;;;;;5056418;28;20494;-57
2022/06/25 05:59:46;;;;;;;6.17;2.37;;;19.80;99.90;;;;;;5051173;28;20561;-56
2022/06/25 06:02:13;;;;;;;2.97;2.00;;;20.00;99.90;;;;;;5050196;28;20490;-56
2022/06/25 06:04:39;;;;;;;2.73;2.03;;;20.00;99.90;;;;;;5058014;28;20758;-55
2022/06/25 06:07:06;;;;;;;2.30;2.10;;;20.10;99.90;;;;;;5058518;28;20485;-56
2022/06/25 06:09:33;;;;;;;4.07;2.40;;;20.20;99.90;;;;;;5051269;28;20493;-56
2022/06/25 06:12:01;;;;;;;3.80;3.40;;;20.30;99.90;;;;;;5055861;28;20607;-56
2022/06/25 06:14:28;;;;;;;2.40;1.60;;;20.30;99.90;;;;;;5056795;28;20486;-56
2022/06/25 06:16:56;;;;;;;2.57;2.10;;;20.40;99.90;;;;;;5054671;28;20976;-55
2022/06/25 06:19:23;;;;;;;4.43;1.60;;;20.50;99.90;;;;;;5063335;28;20474;-54
2022/06/25 06:21:50;;;;;;;3.90;2.03;;;20.50;99.90;;;;;;5059097;28;20490;-53
2022/06/25 06:24:16;;;;;;;4.43;2.37;;;20.50;99.90;;;;;;5054057;28;20484;-54
2022/06/25 06:26:43;;;;;;;3.40;2.10;;;20.60;99.90;;;;;;5049692;28;20950;-58
2022/06/25 06:29:11;;;;;;;3.47;2.20;;;20.70;99.90;;;;;;5057265;28;20475;-53
2022/06/25 06:31:38;;;;;;;2.63;2.40;;;20.80;99.90;;;;;;5059754;28;20477;-53
2022/06/25 06:34:04;;;;;;;2.73;2.30;;;20.90;99.90;;;;;;5059215;28;20485;-53
2022/06/25 06:36:31;;;;;;;2.93;1.90;;;21.00;99.90;;;;;;5060106;28;20485;-52
2022/06/25 06:38:58;;;;;;;5.73;2.60;;;20.90;99.90;;;;;;5058144;28;21012;-54
2022/06/25 06:41:24;;;;;;;4.63;2.53;;;20.90;99.90;;;;;;5058025;28;20854;-52
2022/06/25 06:43:51;;;;;;;3.07;2.50;;;20.80;99.90;;;;;;5044469;28;20488;-53
2022/06/25 06:46:19;;;;;;;4.13;2.07;;;20.90;99.90;;;;;;5054994;28;20484;-53
2022/06/25 06:48:46;;;;;;;3.13;2.20;;;20.90;99.90;;;;;;5058489;28;20983;-53
2022/06/25 06:51:13;;;;;;;24.40;2.80;;;20.90;99.90;;;;;;5058846;28;20480;-53
2022/06/25 06:53:40;;;;;;;4.50;2.13;;;20.90;99.90;;;;;;5052739;28;20486;-53
2022/06/25 06:56:07;;;;;;;3.03;2.60;;;20.90;99.90;;;;;;5054181;28;20511;-52
2022/06/25 06:58:34;;;;;;;4.30;2.37;;;20.90;99.90;;;;;;5058526;28;20492;-54
2022/06/25 07:01:00;;;;;;;7.20;3.03;;;20.90;99.90;;;;;;5060313;28;20531;-53
2022/06/25 07:03:29;;;;;;;4.33;2.70;;;20.90;99.90;;;;;;5057763;28;20484;-53
2022/06/25 07:05:56;;;;;;;2.97;2.67;;;20.90;99.90;;;;;;5051626;28;21208;-52
2022/06/25 07:08:23;;;;;;;2.70;2.50;;;21.10;99.90;;;;;;5056691;28;20541;-53
2022/06/25 07:10:50;;;;;;;3.23;2.67;;;21.20;99.90;;;;;;5058864;28;20481;-52
2022/06/25 07:13:16;;;;;;;3.07;2.77;;;21.20;99.50;;;;;;5056002;28;20474;-52
2022/06/25 07:15:43;;;;;;;3.87;2.70;;;21.20;99.90;;;;;;5056480;28;20496;-53
2022/06/25 07:18:09;;;;;;;3.40;3.20;;;21.30;99.60;;;;;;5057956;28;20488;-53
2022/06/25 07:20:37;;;;;;;2.97;2.77;;;21.50;99.40;;;;;;5062453;28;20852;-53
2022/06/25 07:23:04;;;;;;;6.10;2.83;;;21.80;99.10;;;;;;5054920;28;20975;-53
2022/06/25 07:25:31;;;;;;;2.67;2.47;;;21.80;98.70;;;;;;5046471;28;20474;-53
2022/06/25 07:27:58;;;;;;;4.93;2.83;;;21.80;99.20;;;;;;5060251;28;20857;-53
2022/06/25 07:30:25;;;;;;;5.33;4.13;;;21.90;99.90;;;;;;5049275;28;20482;-53
2022/06/25 07:32:52;;;;;;;3.57;3.00;;;22.20;98.70;;;;;;5046194;28;20528;-52
2022/06/25 07:35:18;;;;;;;3.50;3.10;;;22.30;98.50;;;;;;5056837;28;20493;-52
2022/06/25 07:37:46;;;;;;;6.70;2.63;;;22.50;98.40;;;;;;5036997;28;20493;-52
2022/06/25 07:40:13;;;;;;;6.67;3.07;;;22.50;97.20;;;;;;5053922;28;20487;-52
2022/06/25 07:42:40;;;;;;;3.50;2.37;;;22.40;97.20;;;;;;5055182;28;20521;-52
2022/06/25 07:45:08;;;;;;;2.40;2.03;;;22.60;97.40;;;;;;5056878;28;20481;-52
2022/06/25 07:47:39;;;;;;;3.43;2.50;;;22.60;97.80;;;;;;5046313;28;21021;-52
2022/06/25 07:52:53;;;;;;;2.40;2.07;;;22.70;97.30;;;;;;5050912;28;20552;-52
2022/06/25 07:55:20;;;;;;;2.80;2.50;;;22.60;96.60;;;;;;5049117;28;20487;-52
2022/06/25 07:57:47;;;;;;;3.63;2.00;;;22.70;96.60;;;;;;5041590;28;20494;-52
2022/06/25 08:00:14;;;;;;;2.57;2.37;;;22.90;96.60;;;;;;5052528;28;20508;-53
2022/06/25 08:02:41;;;;;;;2.40;2.20;;;22.90;96.60;;;;;;5035596;28;20482;-51
2022/06/25 08:05:08;;;;;;;4.27;2.17;;;23.00;95.50;;;;;;5052701;28;20493;-51
2022/06/25 08:07:35;;;;;;;2.60;2.13;;;23.00;95.30;;;;;;5059934;28;21165;-53
2022/06/25 08:10:04;;;;;;;2.50;2.30;;;23.20;95.60;;;;;;5055570;28;20501;-52
2022/06/25 08:12:30;;;;;;;2.97;2.00;;;23.30;95.30;;;;;;5056394;28;20478;-53
2022/06/25 08:14:57;;;;;;;2.90;2.40;;;23.30;95.30;;;;;;5042946;28;20486;-52
2022/06/25 08:17:24;;;;;;;3.23;2.70;;;23.40;94.80;;;;;;5055693;28;20482;-52
2022/06/25 08:19:51;;;;;;;4.00;1.90;;;23.60;94.70;;;;;;5054945;28;20490;-50
2022/06/25 08:22:18;;;;;;;6.53;2.27;;;23.60;94.90;;;;;;5058736;28;20490;-52
2022/06/25 08:24:44;;;;;;;2.93;2.50;;;23.70;94.80;;;;;;5057330;28;20486;-52
2022/06/25 08:27:12;;;;;;;2.30;2.10;;;23.90;95.80;;;;;;5058468;28;20932;-53
2022/06/25 08:29:39;;;;;;;2.50;2.17;;;23.70;93.20;;;;;;5059585;28;20479;-54
2022/06/25 08:32:06;;;;;;;2.90;1.97;;;23.60;94.10;;;;;;5054412;28;20475;-52
2022/06/25 08:34:33;;;;;;;3.07;2.77;;;23.50;94.60;;;;;;5056101;28;20467;-51
2022/06/25 08:37:00;;;;;;;3.20;2.90;;;23.50;94.30;;;;;;5046440;28;20483;-51
2022/06/25 08:39:26;;;;;;;2.23;2.03;;;23.50;95.00;;;;;;5062951;28;20494;-51
2022/06/25 08:41:54;;;;;;;4.30;1.87;;;23.30;94.70;;;;;;5055697;28;20482;-52
2022/06/25 08:44:22;;;;;;;2.50;2.30;;;23.30;95.00;;;;;;5057989;28;21010;-51
2022/06/25 08:46:50;;;;;;;2.80;2.50;;;23.40;95.50;;;;;;5058574;28;20850;-51
2022/06/25 08:49:19;;;;;;;4.03;2.20;;;23.70;95.50;;;;;;5059195;28;20904;-52
2022/06/25 08:51:46;;;;;;;3.23;2.00;;;23.70;94.70;;;;;;5058681;28;20585;-52
2022/06/25 08:54:13;;;;;;;3.03;2.10;;;;;;;;;;5048762;28;20478;-52
2022/06/25 08:56:41;;;;;;;4.80;1.80;;;24.60;95.00;;;;;;5061073;28;20840;-51
2022/06/25 08:59:09;;;;;;;2.50;2.30;;;24.60;93.10;;;;;;5053075;28;20463;-51
2022/06/25 09:01:37;;;;;;;3.30;2.10;;;24.40;92.80;;;;;;5061105;28;20747;-52
2022/06/25 09:04:03;;;;;;;4.90;2.67;;;24.30;93.10;;;;;;5060232;28;20481;-52
2022/06/25 09:06:30;;;;;;;2.90;2.27;;;24.10;92.60;;;;;;5058240;28;20474;-52
2022/06/25 09:09:12;;;;;;;5.77;2.27;;;24.00;93.90;;;;;;5059605;28;20474;-52
2022/06/25 09:11:52;;;;;;;3.10;1.80;;;24.30;91.90;;;;;;5057958;28;20484;-52
2022/06/25 09:14:24;;;;;;;2.60;1.80;;;24.60;92.30;;;;;;5059321;28;20479;-52
2022/06/25 09:16:58;;;;;;;2.50;1.87;;;24.60;92.20;;;;;;5058417;28;20487;-52
2022/06/25 09:19:30;;;;;;;3.53;2.53;;;24.70;92.30;;;;;;5061021;28;20479;-51
2022/06/25 09:21:57;;;;;;;5.07;2.10;;;24.70;92.00;;;;;;5059159;28;20552;-52
2022/06/25 09:24:24;;;;;;;2.83;1.10;;;24.60;91.30;;;;;;5062452;28;20486;-53
2022/06/25 09:26:52;;;;;;;5.77;2.40;;;24.30;91.60;;;;;;5058804;28;20873;-52
2022/06/25 09:29:18;;;;;;;3.47;2.50;;;24.40;92.00;;;;;;5060921;28;20478;-51
2022/06/25 09:31:45;;;;;;;5.70;2.40;;;24.50;92.40;;;;;;5058249;28;20482;-52
2022/06/25 09:34:13;;;;;;;4.07;2.00;;;24.40;92.30;;;;;;5046213;28;20479;-51
2022/06/25 09:36:40;;;;;;;2.03;1.80;;;24.50;91.50;;;;;;5058642;28;20461;-51
2022/06/25 09:39:06;;;;;;;1.93;1.73;;;24.60;92.30;;;;;;5058679;28;20471;-51
2022/06/25 09:41:49;;;;;;;2.30;1.63;;;24.60;91.60;;;;;;5054218;28;20494;-52
2022/06/25 09:44:18;;;;;;;1.83;1.30;;;24.70;91.90;;;;;;5059237;28;20545;-52
2022/06/25 09:46:54;;;;;;;2.10;1.87;;;24.60;90.50;;;;;;5046604;28;20558;-51
2022/06/25 09:49:26;;;;;;;2.63;1.90;;;24.70;90.30;;;;;;5049532;28;21029;-53
2022/06/25 09:51:59;;;;;;;3.10;1.97;;;24.60;90.90;;;;;;5058909;28;20449;-51
2022/06/25 09:54:26;;;;;;;3.27;2.10;;;24.50;90.10;;;;;;5064782;28;20586;-52
2022/06/25 09:56:55;;;;;;;4.00;2.07;;;24.50;90.30;;;;;;5057072;28;20553;-51
2022/06/25 09:59:24;;;;;;;5.67;1.90;;;24.40;91.20;;;;;;5058862;28;20489;-53
2022/06/25 10:01:50;;;;;;;2.50;2.30;;;24.50;91.50;;;;;;5061627;28;20477;-51
2022/06/25 10:04:20;;;;;;;2.67;2.47;;;24.40;90.20;;;;;;5060305;28;20471;-51
2022/06/25 10:06:52;;;;;;;8.33;2.57;;;24.80;90.90;;;;;;5057744;28;20449;-51
2022/06/25 10:09:21;;;;;;;7.33;1.90;;;25.10;88.10;;;;;;5058890;28;20475;-51
2022/06/25 10:11:49;;;;;;;2.10;1.90;;;25.20;89.50;;;;;;5057791;28;20491;-50
2022/06/25 10:14:16;;;;;;;2.00;1.60;;;25.40;88.10;;;;;;5052481;28;20711;-52
2022/06/25 10:16:44;;;;;;;3.23;1.83;;;25.50;87.90;;;;;;5060222;28;20855;-51
2022/06/25 10:19:12;;;;;;;2.40;1.57;;;25.60;90.00;;;;;;5053101;28;20487;-51
2022/06/25 10:21:39;;;;;;;2.63;1.97;;;25.90;90.30;;;;;;5058855;28;20566;-51
2022/06/25 10:24:08;;;;;;;2.10;1.50;;;25.90;87.60;;;;;;5052624;28;20478;-52
2022/06/25 10:26:36;;;;;;;3.10;2.10;;;25.70;90.20;;;;;;5049911;28;20482;-52
2022/06/25 10:29:04;;;;;;;2.40;2.00;;;26.00;89.30;;;;;;5046417;28;20475;-52
2022/06/25 10:31:30;;;;;;;2.50;2.07;;;25.90;86.60;;;;;;5034918;28;20585;-52
2022/06/25 10:33:59;;;;;;;2.43;2.23;;;25.70;86.80;;;;;;5055850;28;20861;-52
2022/06/25 10:36:43;;;;;;;2.43;2.23;;;25.30;87.10;;;;;;5048573;28;20475;-52
2022/06/25 10:39:39;;;;;;;4.97;2.20;;;25.50;90.10;;;;;;5051092;28;20471;-53
2022/06/25 10:45:45;;;;;;;2.80;1.90;;;25.30;89.20;;;;;;5041219;28;20489;-52
2022/06/25 10:48:12;;;;;;;1.87;1.50;;;25.50;87.10;;;;;;5039883;28;20474;-52
2022/06/25 10:50:39;;;;;;;3.03;2.00;;;25.60;87.10;;;;;;5050911;28;20482;-53
2022/06/25 10:53:19;;;;;;;4.63;2.33;;;25.80;87.70;;;;;;5020930;28;20483;-52
2022/06/25 10:56:16;;;;;;;2.90;2.00;;;25.60;86.00;;;;;;5047284;28;20485;-51
2022/06/25 10:58:46;;;;;;;3.50;2.97;;;25.90;85.10;;;;;;5040861;28;20491;-51
2022/06/25 11:01:22;;;;;;;4.43;1.77;;;26.00;87.20;;;;;;5058389;28;20908;-51
2022/06/25 11:03:53;;;;;;;2.20;1.93;;;25.90;85.70;;;;;;5058873;28;20847;-51
2022/06/25 11:06:22;;;;;;;2.60;1.93;;;25.60;84.00;;;;;;5053593;28;21100;-53
2022/06/25 11:08:49;;;;;;;5.83;2.10;;;25.40;85.70;;;;;;5053606;28;20587;-52
2022/06/25 11:11:26;;;;;;;2.20;1.70;;;25.80;87.50;;;;;;5057500;28;20458;-52
2022/06/25 11:13:53;;;;;;;2.17;1.97;;;26.10;83.70;;;;;;5053346;28;20483;-51
2022/06/25 11:16:21;;;;;;;5.30;2.20;;;26.00;84.20;;;;;;5054972;28;20479;-53
2022/06/25 11:18:49;;;;;;;3.03;2.00;;;26.10;82.20;;;;;;5057263;28;20513;-51
2022/06/25 11:21:30;;;;;;;2.30;2.00;;;26.10;81.10;;;;;;5055002;28;20466;-50
2022/06/25 11:24:12;;;;;;;2.17;0.97;;;26.10;80.70;;;;;;5057596;28;20445;-53
2022/06/25 11:29:28;;;;;;;2.40;1.90;;;26.30;78.50;;;;;;5050934;28;20468;-51
2022/06/25 11:31:56;;;;;;;4.17;2.13;;;26.60;80.00;;;;;;5052498;28;20825;-51
2022/06/25 11:34:24;;;;;;;2.30;1.73;;;26.90;81.40;;;;;;5059245;28;20478;-52
2022/06/25 11:37:04;;;;;;;1.90;1.60;;;27.10;80.40;;;;;;5057345;28;20919;-51
2022/06/25 11:39:31;;;;;;;2.30;1.50;;;27.20;81.20;;;;;;5055383;28;20461;-52
2022/06/25 11:42:01;;;;;;;2.20;2.00;;;27.00;78.10;;;;;;5057936;28;20507;-52
2022/06/25 11:44:27;;;;;;;3.90;2.00;;;27.00;80.20;;;;;;5058263;28;20517;-52
2022/06/25 11:46:55;;;;;;;3.40;1.97;;;27.40;84.80;;;;;;5054001;28;20460;-53
2022/06/25 11:49:22;;;;;;;2.37;2.17;;;27.80;84.70;;;;;;5060357;28;20505;-54
2022/06/25 11:51:51;;;;;;;4.47;1.90;;;27.80;77.70;;;;;;5055892;28;20543;-53
2022/06/25 11:54:23;;;;;;;2.70;2.07;;;27.40;79.90;;;;;;5058382;28;20818;-52
2022/06/25 11:56:53;;;;;;;1.90;1.30;;;27.70;82.70;;;;;;5048150;28;20456;-54
2022/06/25 11:59:26;;;;;;;5.03;1.70;;;27.40;76.80;;;;;;5055764;28;20474;-52
2022/06/25 12:01:52;;;;;;;2.33;1.60;;;27.50;79.30;;;;;;5030890;28;20874;-52
2022/06/25 12:04:20;;;;;;;2.73;2.17;;;27.70;79.70;;;;;;5059969;28;20448;-51
2022/06/25 12:06:48;;;;;;;2.07;1.43;;;27.50;78.00;;;;;;5047417;28;20917;-51
2022/06/25 12:09:16;;;;;;;5.43;2.53;;;27.20;78.90;;;;;;5063146;28;21030;-50
2022/06/25 12:11:51;;;;;;;2.00;1.60;;;27.10;79.20;;;;;;5055283;28;20944;-51
2022/06/25 12:14:22;;;;;;;2.57;1.80;;;27.30;81.50;;;;;;5059335;28;20602;-52
2022/06/25 12:16:51;;;;;;;5.13;1.97;;;27.60;81.80;;;;;;5054355;28;20471;-51
2022/06/25 12:19:19;;;;;;;4.03;1.93;;;27.60;83.10;;;;;;5024177;28;20586;-53
2022/06/25 12:21:45;;;;;;;2.40;2.00;;;27.60;81.80;;;;;;5064515;28;20466;-51
2022/06/25 12:24:14;;;;;;;2.60;1.70;;;27.60;78.90;;;;;;5042756;28;20450;-52
2022/06/25 12:26:43;;;;;;;2.10;1.47;;;27.50;77.70;;;;;;5034594;28;20457;-52
2022/06/25 12:29:12;;;;;;;3.23;2.40;;;27.70;78.30;;;;;;5045289;28;20467;-51
2022/06/25 12:31:39;;;;;;;2.40;1.90;;;27.60;77.60;;;;;;5051614;28;20490;-50
2022/06/25 12:34:08;;;;;;;1.90;1.60;;;27.70;78.60;;;;;;5050060;28;20671;-51
2022/06/25 12:36:37;;;;;;;2.10;1.53;;;27.80;79.70;;;;;;5052877;28;20481;-51
2022/06/25 12:39:19;;;;;;;2.77;1.73;;;28.00;77.20;;;;;;5061956;28;20544;-52
2022/06/25 12:41:46;;;;;;;2.10;1.63;;;28.10;76.50;;;;;;5062407;28;20473;-51
2022/06/25 12:44:13;;;;;;;4.13;1.50;;;28.30;75.40;;;;;;5062246;28;20577;-51
2022/06/25 12:46:40;;;;;;;4.53;1.60;;;28.30;76.20;;;;;;5056928;28;20588;-51
2022/06/25 12:49:11;;;;;;;1.80;1.37;;;28.20;76.60;;;;;;5037826;28;20446;-51
2022/06/25 12:51:37;;;;;;;4.83;1.77;;;28.20;79.00;;;;;;5050667;28;20908;-50
2022/06/25 12:54:04;;;;;;;4.63;2.47;;;28.20;77.10;;;;;;5061385;28;20456;-50
2022/06/25 12:56:31;;;;;;;2.67;1.57;;;28.30;79.10;;;;;;5061066;28;20958;-51
2022/06/25 12:58:58;;;;;;;2.13;1.60;;;28.40;75.30;;;;;;5052973;28;20980;-51
2022/06/25 13:01:27;;;;;;;2.03;1.40;;;28.40;76.70;;;;;;5062485;28;20644;-51
2022/06/25 13:03:55;;;;;;;3.20;2.10;;;28.20;72.70;;;;;;5038529;28;20446;-52
2022/06/25 13:06:23;;;;;;;2.30;1.70;;;28.00;73.80;;;;;;5057443;28;20480;-52
2022/06/25 13:08:50;;;;;;;3.30;1.57;;;27.90;76.50;;;;;;5058628;28;20962;-53
2022/06/25 13:11:17;;;;;;;3.80;1.80;;;27.60;74.10;;;;;;5060926;28;20461;-53
2022/06/25 13:13:44;;;;;;;3.70;1.70;;;28.10;75.50;;;;;;5057189;28;20490;-52